sensor_id;sensor_type;location;lat;lon;timestamp;P1;durP1;ratioP1;P2;durP2;ratioP2
10977;SDS011;5542;48.272;10.794;2023-05-24T00:01:05;2.28;;;2.17;;
10977;SDS011;5542;48.272;10.794;2023-05-24T00:03:32;2.10;;;2.00;;
10977;SDS011;5542;48.272;10.794;2023-05-24T00:06:03;2.00;;;1.90;;
10977;SDS011;5542;48.272;10.794;2023-05-24T00:08:31;1.95;;;1.85;;
10977;SDS011;5542;48.272;10.794;2023-05-24T00:10:57;1.77;;;1.67;;
10977;SDS011;5542;48.272;10.794;2023-05-24T00:13:24;1.63;;;1.53;;
10977;SDS011;5542;48.272;10.794;2023-05-24T00:15:52;1.27;;;1.27;;
10977;SDS011;5542;48.272;10.794;2023-05-24T00:18:19;1.80;;;1.70;;
10977;SDS011;5542;48.272;10.794;2023-05-24T00:20:45;1.80;;;1.70;;
10977;SDS011;5542;48.272;10.794;2023-05-24T00:23:12;1.85;;;1.75;;
10977;SDS011;5542;48.272;10.794;2023-05-24T00:25:38;2.00;;;1.90;;
10977;SDS011;5542;48.272;10.794;2023-05-24T00:28:05;1.60;;;1.50;;
10977;SDS011;5542;48.272;10.794;2023-05-24T00:30:32;2.95;;;2.75;;
10977;SDS011;5542;48.272;10.794;2023-05-24T00:33:00;2.08;;;1.98;;
10977;SDS011;5542;48.272;10.794;2023-05-24T00:35:26;2.00;;;1.90;;
10977;SDS011;5542;48.272;10.794;2023-05-24T00:37:53;1.67;;;1.57;;
10977;SDS011;5542;48.272;10.794;2023-05-24T00:40:21;3.10;;;2.53;;
10977;SDS011;5542;48.272;10.794;2023-05-24T00:42:47;2.03;;;1.92;;
10977;SDS011;5542;48.272;10.794;2023-05-24T00:45:14;2.50;;;2.40;;
10977;SDS011;5542;48.272;10.794;2023-05-24T00:47:41;1.55;;;1.50;;
10977;SDS011;5542;48.272;10.794;2023-05-24T00:50:09;2.30;;;2.20;;
10977;SDS011;5542;48.272;10.794;2023-05-24T00:52:38;2.08;;;1.98;;
10977;SDS011;5542;48.272;10.794;2023-05-24T00:55:07;1.83;;;1.73;;
10977;SDS011;5542;48.272;10.794;2023-05-24T00:57:34;2.67;;;2.50;;
10977;SDS011;5542;48.272;10.794;2023-05-24T01:00:02;2.40;;;2.30;;
10977;SDS011;5542;48.272;10.794;2023-05-24T01:02:30;2.47;;;2.38;;
10977;SDS011;5542;48.272;10.794;2023-05-24T01:04:57;1.90;;;1.80;;
10977;SDS011;5542;48.272;10.794;2023-05-24T01:07:26;2.00;;;1.90;;
10977;SDS011;5542;48.272;10.794;2023-05-24T01:10:03;2.15;;;2.05;;
10977;SDS011;5542;48.272;10.794;2023-05-24T01:12:36;2.17;;;2.08;;
10977;SDS011;5542;48.272;10.794;2023-05-24T01:15:14;2.30;;;2.20;;
10977;SDS011;5542;48.272;10.794;2023-05-24T01:17:50;2.00;;;1.90;;
10977;SDS011;5542;48.272;10.794;2023-05-24T01:20:26;1.80;;;1.70;;
10977;SDS011;5542;48.272;10.794;2023-05-24T01:23:04;1.92;;;1.83;;
10977;SDS011;5542;48.272;10.794;2023-05-24T01:25:44;2.20;;;2.10;;
10977;SDS011;5542;48.272;10.794;2023-05-24T01:28:16;2.00;;;1.90;;
10977;SDS011;5542;48.272;10.794;2023-05-24T01:30:44;2.70;;;2.50;;
10977;SDS011;5542;48.272;10.794;2023-05-24T01:33:11;2.00;;;1.90;;
10977;SDS011;5542;48.272;10.794;2023-05-24T01:35:38;2.50;;;2.40;;
10977;SDS011;5542;48.272;10.794;2023-05-24T01:38:06;2.30;;;2.20;;
10977;SDS011;5542;48.272;10.794;2023-05-24T01:40:36;2.30;;;2.20;;
10977;SDS011;5542;48.272;10.794;2023-05-24T01:43:06;2.30;;;2.20;;
10977;SDS011;5542;48.272;10.794;2023-05-24T01:45:43;2.00;;;1.90;;
10977;SDS011;5542;48.272;10.794;2023-05-24T01:48:18;2.22;;;2.13;;
10977;SDS011;5542;48.272;10.794;2023-05-24T01:50:54;2.85;;;2.60;;
10977;SDS011;5542;48.272;10.794;2023-05-24T01:53:24;2.80;;;2.60;;
10977;SDS011;5542;48.272;10.794;2023-05-24T01:56:00;3.20;;;3.00;;
10977;SDS011;5542;48.272;10.794;2023-05-24T01:58:30;3.08;;;2.88;;
10977;SDS011;5542;48.272;10.794;2023-05-24T02:00:59;2.88;;;2.67;;
10977;SDS011;5542;48.272;10.794;2023-05-24T02:03:27;3.70;;;3.40;;
10977;SDS011;5542;48.272;10.794;2023-05-24T02:05:54;3.10;;;2.90;;
10977;SDS011;5542;48.272;10.794;2023-05-24T02:08:21;3.22;;;3.00;;
10977;SDS011;5542;48.272;10.794;2023-05-24T02:10:47;3.00;;;2.80;;
10977;SDS011;5542;48.272;10.794;2023-05-24T02:13:14;2.90;;;2.70;;
10977;SDS011;5542;48.272;10.794;2023-05-24T02:15:42;3.25;;;3.00;;
10977;SDS011;5542;48.272;10.794;2023-05-24T02:18:10;3.60;;;3.30;;
10977;SDS011;5542;48.272;10.794;2023-05-24T02:20:37;3.00;;;2.80;;
10977;SDS011;5542;48.272;10.794;2023-05-24T02:23:03;2.75;;;2.55;;
10977;SDS011;5542;48.272;10.794;2023-05-24T02:25:30;3.08;;;2.88;;
10977;SDS011;5542;48.272;10.794;2023-05-24T02:27:57;2.60;;;2.40;;
10977;SDS011;5542;48.272;10.794;2023-05-24T02:30:24;3.00;;;2.72;;
10977;SDS011;5542;48.272;10.794;2023-05-24T02:32:51;3.67;;;3.38;;
10977;SDS011;5542;48.272;10.794;2023-05-24T02:35:19;3.10;;;2.90;;
10977;SDS011;5542;48.272;10.794;2023-05-24T02:37:46;3.17;;;2.97;;
10977;SDS011;5542;48.272;10.794;2023-05-24T02:40:13;4.18;;;3.78;;
10977;SDS011;5542;48.272;10.794;2023-05-24T02:42:40;3.70;;;3.40;;
10977;SDS011;5542;48.272;10.794;2023-05-24T02:45:06;3.00;;;2.80;;
10977;SDS011;5542;48.272;10.794;2023-05-24T02:47:33;4.00;;;3.60;;
10977;SDS011;5542;48.272;10.794;2023-05-24T02:50:00;4.28;;;3.97;;
10977;SDS011;5542;48.272;10.794;2023-05-24T02:52:28;4.60;;;4.20;;
10977;SDS011;5542;48.272;10.794;2023-05-24T02:54:55;4.40;;;4.00;;
10977;SDS011;5542;48.272;10.794;2023-05-24T02:57:22;3.80;;;3.50;;
10977;SDS011;5542;48.272;10.794;2023-05-24T02:59:48;4.47;;;4.07;;
10977;SDS011;5542;48.272;10.794;2023-05-24T03:02:15;4.40;;;4.00;;
10977;SDS011;5542;48.272;10.794;2023-05-24T03:04:43;7.05;;;6.35;;
10977;SDS011;5542;48.272;10.794;2023-05-24T03:07:10;4.85;;;3.97;;
10977;SDS011;5542;48.272;10.794;2023-05-24T03:09:39;4.32;;;3.92;;
10977;SDS011;5542;48.272;10.794;2023-05-24T03:12:06;3.92;;;3.63;;
10977;SDS011;5542;48.272;10.794;2023-05-24T03:14:33;3.42;;;3.13;;
10977;SDS011;5542;48.272;10.794;2023-05-24T03:16:59;4.60;;;4.00;;
10977;SDS011;5542;48.272;10.794;2023-05-24T03:19:26;3.60;;;3.30;;
10977;SDS011;5542;48.272;10.794;2023-05-24T03:21:53;4.90;;;3.85;;
10977;SDS011;5542;48.272;10.794;2023-05-24T03:24:19;3.80;;;3.50;;
10977;SDS011;5542;48.272;10.794;2023-05-24T03:26:48;3.17;;;2.88;;
10977;SDS011;5542;48.272;10.794;2023-05-24T03:29:15;3.10;;;2.80;;
10977;SDS011;5542;48.272;10.794;2023-05-24T03:31:41;4.15;;;3.70;;
10977;SDS011;5542;48.272;10.794;2023-05-24T03:34:08;3.90;;;3.35;;
10977;SDS011;5542;48.272;10.794;2023-05-24T03:36:34;3.30;;;3.05;;
10977;SDS011;5542;48.272;10.794;2023-05-24T03:39:01;2.85;;;2.65;;
10977;SDS011;5542;48.272;10.794;2023-05-24T03:41:28;3.97;;;3.05;;
10977;SDS011;5542;48.272;10.794;2023-05-24T03:43:56;3.15;;;2.85;;
10977;SDS011;5542;48.272;10.794;2023-05-24T03:46:23;3.45;;;3.15;;
10977;SDS011;5542;48.272;10.794;2023-05-24T03:48:49;3.08;;;2.78;;
10977;SDS011;5542;48.272;10.794;2023-05-24T03:51:16;4.20;;;3.45;;
10977;SDS011;5542;48.272;10.794;2023-05-24T03:53:43;4.77;;;3.50;;
10977;SDS011;5542;48.272;10.794;2023-05-24T03:56:09;4.15;;;3.08;;
10977;SDS011;5542;48.272;10.794;2023-05-24T03:58:36;3.45;;;2.90;;
10977;SDS011;5542;48.272;10.794;2023-05-24T04:01:04;3.78;;;3.30;;
10977;SDS011;5542;48.272;10.794;2023-05-24T04:03:31;4.13;;;3.10;;
10977;SDS011;5542;48.272;10.794;2023-05-24T04:05:58;3.53;;;3.08;;
10977;SDS011;5542;48.272;10.794;2023-05-24T04:08:24;3.25;;;2.80;;
10977;SDS011;5542;48.272;10.794;2023-05-24T04:10:51;3.28;;;2.90;;
10977;SDS011;5542;48.272;10.794;2023-05-24T04:13:18;3.53;;;3.22;;
10977;SDS011;5542;48.272;10.794;2023-05-24T04:15:44;3.90;;;3.20;;
10977;SDS011;5542;48.272;10.794;2023-05-24T04:18:12;3.15;;;2.85;;
10977;SDS011;5542;48.272;10.794;2023-05-24T04:20:39;4.93;;;3.70;;
10977;SDS011;5542;48.272;10.794;2023-05-24T04:23:07;3.47;;;3.17;;
10977;SDS011;5542;48.272;10.794;2023-05-24T04:25:34;3.50;;;2.75;;
10977;SDS011;5542;48.272;10.794;2023-05-24T04:28:00;3.88;;;3.00;;
10977;SDS011;5542;48.272;10.794;2023-05-24T04:30:27;3.78;;;3.45;;
10977;SDS011;5542;48.272;10.794;2023-05-24T04:32:54;3.65;;;3.35;;
10977;SDS011;5542;48.272;10.794;2023-05-24T04:35:22;4.80;;;3.53;;
10977;SDS011;5542;48.272;10.794;2023-05-24T04:37:49;4.67;;;3.07;;
10977;SDS011;5542;48.272;10.794;2023-05-24T04:40:16;3.17;;;2.88;;
10977;SDS011;5542;48.272;10.794;2023-05-24T04:42:44;4.18;;;2.92;;
10977;SDS011;5542;48.272;10.794;2023-05-24T04:45:11;4.40;;;3.45;;
10977;SDS011;5542;48.272;10.794;2023-05-24T04:47:38;3.50;;;3.20;;
10977;SDS011;5542;48.272;10.794;2023-05-24T04:50:06;4.25;;;3.20;;
10977;SDS011;5542;48.272;10.794;2023-05-24T04:52:34;3.33;;;3.03;;
10977;SDS011;5542;48.272;10.794;2023-05-24T04:55:01;4.07;;;3.33;;
10977;SDS011;5542;48.272;10.794;2023-05-24T04:57:28;3.95;;;3.38;;
10977;SDS011;5542;48.272;10.794;2023-05-24T04:59:54;3.00;;;2.70;;
10977;SDS011;5542;48.272;10.794;2023-05-24T05:02:21;3.33;;;3.00;;
10977;SDS011;5542;48.272;10.794;2023-05-24T05:04:50;3.83;;;3.17;;
10977;SDS011;5542;48.272;10.794;2023-05-24T05:07:17;2.75;;;2.50;;
10977;SDS011;5542;48.272;10.794;2023-05-24T05:09:44;2.65;;;2.45;;
10977;SDS011;5542;48.272;10.794;2023-05-24T05:12:11;3.90;;;3.20;;
10977;SDS011;5542;48.272;10.794;2023-05-24T05:14:38;3.53;;;3.10;;
10977;SDS011;5542;48.272;10.794;2023-05-24T05:17:04;3.70;;;2.90;;
10977;SDS011;5542;48.272;10.794;2023-05-24T05:19:31;3.90;;;3.50;;
10977;SDS011;5542;48.272;10.794;2023-05-24T05:21:58;4.35;;;3.50;;
10977;SDS011;5542;48.272;10.794;2023-05-24T05:24:25;4.35;;;3.50;;
10977;SDS011;5542;48.272;10.794;2023-05-24T05:26:52;4.15;;;3.30;;
10977;SDS011;5542;48.272;10.794;2023-05-24T05:29:19;3.50;;;3.20;;
10977;SDS011;5542;48.272;10.794;2023-05-24T05:31:46;4.25;;;3.33;;
10977;SDS011;5542;48.272;10.794;2023-05-24T05:34:13;4.22;;;3.35;;
10977;SDS011;5542;48.272;10.794;2023-05-24T05:36:39;6.25;;;4.00;;
10977;SDS011;5542;48.272;10.794;2023-05-24T05:39:06;4.78;;;3.58;;
10977;SDS011;5542;48.272;10.794;2023-05-24T05:41:36;6.05;;;4.00;;
10977;SDS011;5542;48.272;10.794;2023-05-24T05:44:05;5.43;;;3.72;;
10977;SDS011;5542;48.272;10.794;2023-05-24T05:46:32;6.15;;;4.10;;
10977;SDS011;5542;48.272;10.794;2023-05-24T05:48:58;6.00;;;3.78;;
10977;SDS011;5542;48.272;10.794;2023-05-24T05:51:25;4.00;;;3.35;;
10977;SDS011;5542;48.272;10.794;2023-05-24T05:53:51;4.20;;;3.57;;
10977;SDS011;5542;48.272;10.794;2023-05-24T05:56:18;6.10;;;4.05;;
10977;SDS011;5542;48.272;10.794;2023-05-24T05:58:45;3.50;;;3.20;;
10977;SDS011;5542;48.272;10.794;2023-05-24T06:01:14;4.20;;;3.80;;
10977;SDS011;5542;48.272;10.794;2023-05-24T06:03:40;4.55;;;3.70;;
10977;SDS011;5542;48.272;10.794;2023-05-24T06:06:07;7.78;;;4.10;;
10977;SDS011;5542;48.272;10.794;2023-05-24T06:08:34;4.80;;;3.67;;
10977;SDS011;5542;48.272;10.794;2023-05-24T06:11:01;5.22;;;4.28;;
10977;SDS011;5542;48.272;10.794;2023-05-24T06:13:27;5.72;;;4.22;;
10977;SDS011;5542;48.272;10.794;2023-05-24T06:15:55;5.30;;;3.95;;
10977;SDS011;5542;48.272;10.794;2023-05-24T06:18:24;5.72;;;4.18;;
10977;SDS011;5542;48.272;10.794;2023-05-24T06:20:51;5.57;;;4.13;;
10977;SDS011;5542;48.272;10.794;2023-05-24T06:23:18;6.00;;;4.20;;
10977;SDS011;5542;48.272;10.794;2023-05-24T06:25:44;4.97;;;3.85;;
10977;SDS011;5542;48.272;10.794;2023-05-24T06:28:11;6.30;;;4.07;;
10977;SDS011;5542;48.272;10.794;2023-05-24T06:30:37;5.80;;;3.80;;
10977;SDS011;5542;48.272;10.794;2023-05-24T06:33:04;4.95;;;4.10;;
10977;SDS011;5542;48.272;10.794;2023-05-24T06:35:32;4.55;;;3.80;;
10977;SDS011;5542;48.272;10.794;2023-05-24T06:37:58;4.93;;;3.95;;
10977;SDS011;5542;48.272;10.794;2023-05-24T06:40:25;5.72;;;3.30;;
10977;SDS011;5542;48.272;10.794;2023-05-24T06:42:51;4.15;;;3.08;;
10977;SDS011;5542;48.272;10.794;2023-05-24T06:45:18;6.07;;;4.22;;
10977;SDS011;5542;48.272;10.794;2023-05-24T06:47:45;4.90;;;4.00;;
10977;SDS011;5542;48.272;10.794;2023-05-24T06:50:11;4.88;;;3.40;;
10977;SDS011;5542;48.272;10.794;2023-05-24T06:52:39;3.97;;;3.47;;
10977;SDS011;5542;48.272;10.794;2023-05-24T06:55:06;4.05;;;3.65;;
10977;SDS011;5542;48.272;10.794;2023-05-24T06:57:33;5.30;;;4.00;;
10977;SDS011;5542;48.272;10.794;2023-05-24T07:00:00;4.22;;;3.70;;
10977;SDS011;5542;48.272;10.794;2023-05-24T07:02:28;5.85;;;3.90;;
10977;SDS011;5542;48.272;10.794;2023-05-24T07:04:54;4.05;;;3.47;;
10977;SDS011;5542;48.272;10.794;2023-05-24T07:07:22;6.28;;;4.75;;
10977;SDS011;5542;48.272;10.794;2023-05-24T07:09:50;4.20;;;3.80;;
10977;SDS011;5542;48.272;10.794;2023-05-24T07:12:16;5.87;;;4.00;;
10977;SDS011;5542;48.272;10.794;2023-05-24T07:14:43;7.80;;;4.15;;
10977;SDS011;5542;48.272;10.794;2023-05-24T07:17:10;4.95;;;4.10;;
10977;SDS011;5542;48.272;10.794;2023-05-24T07:19:36;4.47;;;3.78;;
10977;SDS011;5542;48.272;10.794;2023-05-24T07:22:03;4.38;;;3.90;;
10977;SDS011;5542;48.272;10.794;2023-05-24T07:24:29;5.60;;;3.97;;
10977;SDS011;5542;48.272;10.794;2023-05-24T07:26:57;5.35;;;4.18;;
10977;SDS011;5542;48.272;10.794;2023-05-24T07:29:24;6.30;;;3.95;;
10977;SDS011;5542;48.272;10.794;2023-05-24T07:31:51;4.18;;;3.75;;
10977;SDS011;5542;48.272;10.794;2023-05-24T07:34:20;4.43;;;3.70;;
10977;SDS011;5542;48.272;10.794;2023-05-24T07:36:47;6.57;;;4.10;;
10977;SDS011;5542;48.272;10.794;2023-05-24T07:39:14;5.32;;;4.03;;
10977;SDS011;5542;48.272;10.794;2023-05-24T07:41:41;4.50;;;3.90;;
10977;SDS011;5542;48.272;10.794;2023-05-24T07:44:09;5.97;;;4.10;;
10977;SDS011;5542;48.272;10.794;2023-05-24T07:46:36;5.28;;;3.88;;
10977;SDS011;5542;48.272;10.794;2023-05-24T07:49:02;5.53;;;3.90;;
10977;SDS011;5542;48.272;10.794;2023-05-24T07:51:29;4.72;;;4.18;;
10977;SDS011;5542;48.272;10.794;2023-05-24T07:53:56;7.05;;;4.13;;
10977;SDS011;5542;48.272;10.794;2023-05-24T07:56:23;7.20;;;4.30;;
10977;SDS011;5542;48.272;10.794;2023-05-24T07:58:49;4.65;;;3.58;;
10977;SDS011;5542;48.272;10.794;2023-05-24T08:01:17;6.68;;;3.70;;
10977;SDS011;5542;48.272;10.794;2023-05-24T08:03:44;5.63;;;3.75;;
10977;SDS011;5542;48.272;10.794;2023-05-24T08:06:11;3.88;;;3.20;;
10977;SDS011;5542;48.272;10.794;2023-05-24T08:08:38;4.88;;;4.22;;
10977;SDS011;5542;48.272;10.794;2023-05-24T08:11:05;3.30;;;3.10;;
10977;SDS011;5542;48.272;10.794;2023-05-24T08:13:32;5.70;;;4.18;;
10977;SDS011;5542;48.272;10.794;2023-05-24T08:15:58;5.35;;;3.92;;
10977;SDS011;5542;48.272;10.794;2023-05-24T08:18:26;4.22;;;3.53;;
10977;SDS011;5542;48.272;10.794;2023-05-24T08:20:53;3.50;;;3.20;;
10977;SDS011;5542;48.272;10.794;2023-05-24T08:23:19;5.05;;;3.88;;
10977;SDS011;5542;48.272;10.794;2023-05-24T08:25:46;5.03;;;3.93;;
10977;SDS011;5542;48.272;10.794;2023-05-24T08:28:12;4.72;;;3.60;;
10977;SDS011;5542;48.272;10.794;2023-05-24T08:30:40;5.10;;;3.40;;
10977;SDS011;5542;48.272;10.794;2023-05-24T08:33:07;5.03;;;3.83;;
10977;SDS011;5542;48.272;10.794;2023-05-24T08:35:35;5.18;;;3.58;;
10977;SDS011;5542;48.272;10.794;2023-05-24T08:38:02;4.20;;;3.58;;
10977;SDS011;5542;48.272;10.794;2023-05-24T08:40:28;3.63;;;3.15;;
10977;SDS011;5542;48.272;10.794;2023-05-24T08:42:55;6.17;;;3.80;;
10977;SDS011;5542;48.272;10.794;2023-05-24T08:45:25;4.97;;;3.65;;
10977;SDS011;5542;48.272;10.794;2023-05-24T08:47:55;3.45;;;3.10;;
10977;SDS011;5542;48.272;10.794;2023-05-24T08:50:23;3.45;;;3.13;;
10977;SDS011;5542;48.272;10.794;2023-05-24T08:52:52;4.03;;;3.03;;
10977;SDS011;5542;48.272;10.794;2023-05-24T08:55:19;5.30;;;3.72;;
10977;SDS011;5542;48.272;10.794;2023-05-24T08:57:46;3.78;;;3.47;;
10977;SDS011;5542;48.272;10.794;2023-05-24T09:00:14;4.18;;;3.28;;
10977;SDS011;5542;48.272;10.794;2023-05-24T09:02:42;3.55;;;3.10;;
10977;SDS011;5542;48.272;10.794;2023-05-24T09:05:10;6.00;;;3.67;;
10977;SDS011;5542;48.272;10.794;2023-05-24T09:07:41;4.15;;;3.70;;
10977;SDS011;5542;48.272;10.794;2023-05-24T09:10:10;3.90;;;3.60;;
10977;SDS011;5542;48.272;10.794;2023-05-24T09:12:38;5.22;;;3.80;;
10977;SDS011;5542;48.272;10.794;2023-05-24T09:15:06;4.22;;;3.40;;
10977;SDS011;5542;48.272;10.794;2023-05-24T09:17:33;3.97;;;3.50;;
10977;SDS011;5542;48.272;10.794;2023-05-24T09:20:00;6.50;;;3.88;;
10977;SDS011;5542;48.272;10.794;2023-05-24T09:22:30;3.80;;;3.10;;
10977;SDS011;5542;48.272;10.794;2023-05-24T09:24:59;4.38;;;3.22;;
10977;SDS011;5542;48.272;10.794;2023-05-24T09:27:27;2.97;;;2.70;;
10977;SDS011;5542;48.272;10.794;2023-05-24T09:29:58;4.93;;;3.40;;
10977;SDS011;5542;48.272;10.794;2023-05-24T09:32:25;4.95;;;3.25;;
10977;SDS011;5542;48.272;10.794;2023-05-24T09:34:55;4.80;;;3.30;;
10977;SDS011;5542;48.272;10.794;2023-05-24T09:37:23;7.05;;;4.07;;
10977;SDS011;5542;48.272;10.794;2023-05-24T09:39:52;5.15;;;3.65;;
10977;SDS011;5542;48.272;10.794;2023-05-24T09:42:20;4.70;;;3.70;;
10977;SDS011;5542;48.272;10.794;2023-05-24T09:44:49;5.18;;;3.92;;
10977;SDS011;5542;48.272;10.794;2023-05-24T09:47:26;3.80;;;3.42;;
10977;SDS011;5542;48.272;10.794;2023-05-24T09:49:54;4.53;;;3.30;;
10977;SDS011;5542;48.272;10.794;2023-05-24T09:52:21;5.13;;;3.33;;
10977;SDS011;5542;48.272;10.794;2023-05-24T09:54:47;4.47;;;3.60;;
10977;SDS011;5542;48.272;10.794;2023-05-24T09:57:14;5.78;;;4.10;;
10977;SDS011;5542;48.272;10.794;2023-05-24T09:59:41;5.35;;;3.60;;
10977;SDS011;5542;48.272;10.794;2023-05-24T10:02:10;6.07;;;3.70;;
10977;SDS011;5542;48.272;10.794;2023-05-24T10:04:37;4.30;;;3.80;;
10977;SDS011;5542;48.272;10.794;2023-05-24T10:07:04;5.23;;;3.63;;
10977;SDS011;5542;48.272;10.794;2023-05-24T10:09:31;4.20;;;3.47;;
10977;SDS011;5542;48.272;10.794;2023-05-24T10:12:00;5.22;;;3.67;;
10977;SDS011;5542;48.272;10.794;2023-05-24T10:14:29;3.90;;;3.28;;
10977;SDS011;5542;48.272;10.794;2023-05-24T10:16:58;5.43;;;3.70;;
10977;SDS011;5542;48.272;10.794;2023-05-24T10:19:26;4.40;;;3.80;;
10977;SDS011;5542;48.272;10.794;2023-05-24T10:21:52;5.47;;;3.80;;
10977;SDS011;5542;48.272;10.794;2023-05-24T10:24:23;4.15;;;3.72;;
10977;SDS011;5542;48.272;10.794;2023-05-24T10:26:52;7.07;;;3.72;;
10977;SDS011;5542;48.272;10.794;2023-05-24T10:29:23;4.30;;;3.20;;
10977;SDS011;5542;48.272;10.794;2023-05-24T10:31:59;6.10;;;3.60;;
10977;SDS011;5542;48.272;10.794;2023-05-24T10:34:27;6.15;;;3.47;;
10977;SDS011;5542;48.272;10.794;2023-05-24T10:36:56;5.57;;;3.88;;
10977;SDS011;5542;48.272;10.794;2023-05-24T10:39:24;5.97;;;3.88;;
10977;SDS011;5542;48.272;10.794;2023-05-24T10:41:50;6.45;;;3.67;;
10977;SDS011;5542;48.272;10.794;2023-05-24T10:44:20;7.10;;;4.00;;
10977;SDS011;5542;48.272;10.794;2023-05-24T10:47:07;7.20;;;3.70;;
10977;SDS011;5542;48.272;10.794;2023-05-24T10:49:36;4.78;;;3.28;;
10977;SDS011;5542;48.272;10.794;2023-05-24T10:52:06;5.23;;;3.60;;
10977;SDS011;5542;48.272;10.794;2023-05-24T10:54:34;5.25;;;3.75;;
10977;SDS011;5542;48.272;10.794;2023-05-24T10:57:02;6.40;;;3.33;;
10977;SDS011;5542;48.272;10.794;2023-05-24T10:59:30;6.57;;;3.58;;
10977;SDS011;5542;48.272;10.794;2023-05-24T11:02:01;4.47;;;3.97;;
10977;SDS011;5542;48.272;10.794;2023-05-24T11:04:30;3.65;;;3.05;;
10977;SDS011;5542;48.272;10.794;2023-05-24T11:07:01;3.70;;;3.10;;
10977;SDS011;5542;48.272;10.794;2023-05-24T11:09:29;4.80;;;3.80;;
10977;SDS011;5542;48.272;10.794;2023-05-24T11:11:59;6.25;;;3.53;;
10977;SDS011;5542;48.272;10.794;2023-05-24T11:14:28;5.57;;;3.78;;
10977;SDS011;5542;48.272;10.794;2023-05-24T11:16:56;4.85;;;4.30;;
10977;SDS011;5542;48.272;10.794;2023-05-24T11:19:29;5.65;;;3.90;;
10977;SDS011;5542;48.272;10.794;2023-05-24T11:21:58;5.85;;;3.75;;
10977;SDS011;5542;48.272;10.794;2023-05-24T11:24:26;5.53;;;3.88;;
10977;SDS011;5542;48.272;10.794;2023-05-24T11:26:54;6.53;;;3.70;;
10977;SDS011;5542;48.272;10.794;2023-05-24T11:29:21;4.57;;;3.50;;
10977;SDS011;5542;48.272;10.794;2023-05-24T11:31:48;4.78;;;3.90;;
10977;SDS011;5542;48.272;10.794;2023-05-24T11:34:15;6.13;;;3.90;;
10977;SDS011;5542;48.272;10.794;2023-05-24T11:36:42;4.65;;;3.53;;
10977;SDS011;5542;48.272;10.794;2023-05-24T11:39:10;4.67;;;3.70;;
10977;SDS011;5542;48.272;10.794;2023-05-24T11:41:39;4.90;;;3.80;;
10977;SDS011;5542;48.272;10.794;2023-05-24T11:44:06;5.45;;;3.72;;
10977;SDS011;5542;48.272;10.794;2023-05-24T11:46:34;5.43;;;4.20;;
10977;SDS011;5542;48.272;10.794;2023-05-24T11:49:03;4.68;;;3.60;;
10977;SDS011;5542;48.272;10.794;2023-05-24T11:51:31;4.35;;;3.50;;
10977;SDS011;5542;48.272;10.794;2023-05-24T11:53:59;5.07;;;3.63;;
10977;SDS011;5542;48.272;10.794;2023-05-24T11:56:26;6.30;;;3.85;;
10977;SDS011;5542;48.272;10.794;2023-05-24T11:58:58;9.05;;;3.85;;
10977;SDS011;5542;48.272;10.794;2023-05-24T12:01:30;6.57;;;3.85;;
10977;SDS011;5542;48.272;10.794;2023-05-24T12:03:57;5.95;;;3.90;;
10977;SDS011;5542;48.272;10.794;2023-05-24T12:06:32;4.30;;;3.33;;
10977;SDS011;5542;48.272;10.794;2023-05-24T12:09:00;4.60;;;3.55;;
10977;SDS011;5542;48.272;10.794;2023-05-24T12:11:29;5.93;;;3.88;;
10977;SDS011;5542;48.272;10.794;2023-05-24T12:13:57;5.43;;;4.00;;
10977;SDS011;5542;48.272;10.794;2023-05-24T12:16:24;7.35;;;4.18;;
10977;SDS011;5542;48.272;10.794;2023-05-24T12:18:56;5.25;;;4.00;;
10977;SDS011;5542;48.272;10.794;2023-05-24T12:21:22;5.85;;;3.80;;
10977;SDS011;5542;48.272;10.794;2023-05-24T12:23:49;5.50;;;3.80;;
10977;SDS011;5542;48.272;10.794;2023-05-24T12:26:16;5.65;;;3.90;;
10977;SDS011;5542;48.272;10.794;2023-05-24T12:28:44;6.00;;;4.05;;
10977;SDS011;5542;48.272;10.794;2023-05-24T12:31:12;6.78;;;4.28;;
10977;SDS011;5542;48.272;10.794;2023-05-24T12:33:39;4.22;;;3.67;;
10977;SDS011;5542;48.272;10.794;2023-05-24T12:36:06;4.65;;;3.50;;
10977;SDS011;5542;48.272;10.794;2023-05-24T12:38:35;5.68;;;3.80;;
10977;SDS011;5542;48.272;10.794;2023-05-24T12:41:01;8.95;;;5.70;;
10977;SDS011;5542;48.272;10.794;2023-05-24T12:43:30;6.73;;;4.20;;
10977;SDS011;5542;48.272;10.794;2023-05-24T12:45:57;5.03;;;3.80;;
10977;SDS011;5542;48.272;10.794;2023-05-24T12:48:25;6.78;;;3.72;;
10977;SDS011;5542;48.272;10.794;2023-05-24T12:50:52;6.55;;;3.97;;
10977;SDS011;5542;48.272;10.794;2023-05-24T12:53:18;5.07;;;3.92;;
10977;SDS011;5542;48.272;10.794;2023-05-24T12:55:48;7.30;;;4.30;;
10977;SDS011;5542;48.272;10.794;2023-05-24T12:58:15;5.75;;;4.07;;
10977;SDS011;5542;48.272;10.794;2023-05-24T13:00:43;5.45;;;3.88;;
10977;SDS011;5542;48.272;10.794;2023-05-24T13:03:14;6.60;;;4.07;;
10977;SDS011;5542;48.272;10.794;2023-05-24T13:05:42;7.28;;;4.18;;
10977;SDS011;5542;48.272;10.794;2023-05-24T13:08:08;6.10;;;4.18;;
10977;SDS011;5542;48.272;10.794;2023-05-24T13:10:35;5.85;;;4.00;;
10977;SDS011;5542;48.272;10.794;2023-05-24T13:13:01;7.57;;;4.10;;
10977;SDS011;5542;48.272;10.794;2023-05-24T13:15:29;7.00;;;4.22;;
10977;SDS011;5542;48.272;10.794;2023-05-24T13:17:55;5.55;;;3.90;;
10977;SDS011;5542;48.272;10.794;2023-05-24T13:20:22;5.37;;;3.50;;
10977;SDS011;5542;48.272;10.794;2023-05-24T13:22:50;5.57;;;3.85;;
10977;SDS011;5542;48.272;10.794;2023-05-24T13:25:16;4.55;;;3.75;;
10977;SDS011;5542;48.272;10.794;2023-05-24T13:27:46;3.58;;;3.22;;
10977;SDS011;5542;48.272;10.794;2023-05-24T13:30:13;4.63;;;3.90;;
10977;SDS011;5542;48.272;10.794;2023-05-24T13:32:41;3.92;;;3.55;;
10977;SDS011;5542;48.272;10.794;2023-05-24T13:35:08;7.18;;;3.63;;
10977;SDS011;5542;48.272;10.794;2023-05-24T13:37:35;5.35;;;4.13;;
10977;SDS011;5542;48.272;10.794;2023-05-24T13:40:03;6.38;;;4.32;;
10977;SDS011;5542;48.272;10.794;2023-05-24T13:42:31;5.93;;;3.97;;
10977;SDS011;5542;48.272;10.794;2023-05-24T13:44:57;5.85;;;3.80;;
10977;SDS011;5542;48.272;10.794;2023-05-24T13:47:24;3.65;;;3.35;;
10977;SDS011;5542;48.272;10.794;2023-05-24T13:49:51;6.63;;;4.23;;
10977;SDS011;5542;48.272;10.794;2023-05-24T13:52:17;4.53;;;3.93;;
10977;SDS011;5542;48.272;10.794;2023-05-24T13:54:44;4.50;;;3.63;;
10977;SDS011;5542;48.272;10.794;2023-05-24T13:57:12;6.63;;;4.28;;
10977;SDS011;5542;48.272;10.794;2023-05-24T13:59:38;6.05;;;4.50;;
10977;SDS011;5542;48.272;10.794;2023-05-24T14:02:06;6.68;;;4.35;;
10977;SDS011;5542;48.272;10.794;2023-05-24T14:04:32;6.60;;;3.92;;
10977;SDS011;5542;48.272;10.794;2023-05-24T14:07:01;6.75;;;4.60;;
10977;SDS011;5542;48.272;10.794;2023-05-24T14:09:28;4.67;;;4.17;;
10977;SDS011;5542;48.272;10.794;2023-05-24T14:11:54;5.75;;;4.25;;
10977;SDS011;5542;48.272;10.794;2023-05-24T14:14:25;5.22;;;4.05;;
10977;SDS011;5542;48.272;10.794;2023-05-24T14:16:52;6.32;;;4.70;;
10977;SDS011;5542;48.272;10.794;2023-05-24T14:19:19;4.10;;;3.70;;
10977;SDS011;5542;48.272;10.794;2023-05-24T14:21:46;6.50;;;4.15;;
10977;SDS011;5542;48.272;10.794;2023-05-24T14:24:12;6.40;;;4.32;;
10977;SDS011;5542;48.272;10.794;2023-05-24T14:26:39;5.78;;;4.35;;
10977;SDS011;5542;48.272;10.794;2023-05-24T14:29:06;6.18;;;4.03;;
10977;SDS011;5542;48.272;10.794;2023-05-24T14:31:34;6.53;;;4.18;;
10977;SDS011;5542;48.272;10.794;2023-05-24T14:34:06;5.97;;;4.00;;
10977;SDS011;5542;48.272;10.794;2023-05-24T14:36:33;5.70;;;3.90;;
10977;SDS011;5542;48.272;10.794;2023-05-24T14:38:59;3.60;;;3.15;;
10977;SDS011;5542;48.272;10.794;2023-05-24T14:41:26;5.32;;;3.88;;
10977;SDS011;5542;48.272;10.794;2023-05-24T14:43:52;6.15;;;4.32;;
10977;SDS011;5542;48.272;10.794;2023-05-24T14:46:19;5.85;;;4.32;;
10977;SDS011;5542;48.272;10.794;2023-05-24T14:48:47;5.00;;;4.00;;
10977;SDS011;5542;48.272;10.794;2023-05-24T14:51:14;4.57;;;4.18;;